createdAt,value
2022-07-28T00:02:23.991Z,14.07
2022-07-28T00:04:50.699Z,14.73
2022-07-28T00:07:17.559Z,15.52
2022-07-28T00:09:44.275Z,15.73
2022-07-28T00:12:10.939Z,15.50
2022-07-28T00:14:37.792Z,15.85
2022-07-28T00:17:04.473Z,15.43
2022-07-28T00:19:31.196Z,16.88
2022-07-28T00:21:57.863Z,17.17
2022-07-28T00:24:24.647Z,17.67
2022-07-28T00:26:51.772Z,17.67
2022-07-28T00:29:18.679Z,17.35
2022-07-28T00:31:45.414Z,17.50
2022-07-28T00:34:12.692Z,18.00
2022-07-28T00:36:39.587Z,18.27
2022-07-28T00:39:06.459Z,18.13
2022-07-28T00:41:33.418Z,16.33
2022-07-28T00:44:00.201Z,15.35
2022-07-28T00:46:27.152Z,16.42
2022-07-28T00:48:55.074Z,18.50
2022-07-28T00:51:25.309Z,14.32
2022-07-28T00:53:52.834Z,14.52
2022-07-28T00:56:20.203Z,17.08
2022-07-28T00:58:47.542Z,15.88
2022-07-28T01:01:17.629Z,15.82
2022-07-28T01:03:48.029Z,15.40
2022-07-28T01:06:20.364Z,15.65
2022-07-28T01:08:57.931Z,16.02
2022-07-28T01:11:46.917Z,15.70
2022-07-28T01:14:36.955Z,14.77
2022-07-28T01:17:16.505Z,16.77
2022-07-28T01:20:08.379Z,15.77
2022-07-28T01:22:40.875Z,15.05
2022-07-28T01:25:30.641Z,16.48
2022-07-28T01:28:06.656Z,15.25
2022-07-28T01:30:45.957Z,17.83
2022-07-28T01:33:18.740Z,15.18
2022-07-28T01:35:52.997Z,15.70
2022-07-28T01:38:22.723Z,15.10
2022-07-28T01:40:52.672Z,16.58
2022-07-28T01:43:24.227Z,16.77
2022-07-28T01:45:54.200Z,15.85
2022-07-28T01:48:23.614Z,17.02
2022-07-28T01:50:52.012Z,16.48
2022-07-28T01:53:20.598Z,16.70
2022-07-28T01:55:50.011Z,16.10
2022-07-28T01:58:21.052Z,15.82
2022-07-28T02:00:52.456Z,16.10
2022-07-28T02:03:21.946Z,16.05
2022-07-28T02:05:50.469Z,16.70
2022-07-28T02:08:20.321Z,15.73
2022-07-28T02:11:10.163Z,17.55
2022-07-28T02:13:38.258Z,16.40
2022-07-28T02:16:07.984Z,17.05
2022-07-28T02:18:37.301Z,16.38
2022-07-28T02:21:05.139Z,17.10
2022-07-28T02:23:33.081Z,17.38
2022-07-28T02:26:03.113Z,17.35
2022-07-28T02:28:30.056Z,17.63
2022-07-28T02:31:12.271Z,17.48
2022-07-28T02:33:59.910Z,17.30
2022-07-28T02:36:37.384Z,17.45
2022-07-28T02:39:08.623Z,17.88
2022-07-28T02:41:41.560Z,17.25
2022-07-28T02:44:21.599Z,16.80
2022-07-28T02:46:52.858Z,17.25
2022-07-28T02:49:31.391Z,17.08
2022-07-28T02:52:00.474Z,17.35
2022-07-28T02:54:29.933Z,18.27
2022-07-28T02:56:58.720Z,25.00
2022-07-28T02:59:27.311Z,17.25
2022-07-28T03:01:55.775Z,17.52
2022-07-28T03:04:43.259Z,19.55
2022-07-28T03:07:11.175Z,16.63
2022-07-28T03:09:43.145Z,16.95
2022-07-28T03:12:11.262Z,17.52
2022-07-28T03:14:38.632Z,17.73
2022-07-28T03:17:06.076Z,18.00
2022-07-28T03:19:33.420Z,17.88
2022-07-28T03:22:00.473Z,16.77
2022-07-28T03:24:35.361Z,17.65
2022-07-28T03:27:12.192Z,16.67
2022-07-28T03:29:41.474Z,17.45
2022-07-28T03:32:09.106Z,16.30
2022-07-28T03:34:36.284Z,15.70
2022-07-28T03:37:08.878Z,16.38
2022-07-28T03:39:45.128Z,16.40
2022-07-28T03:42:12.817Z,14.88
2022-07-28T03:44:40.620Z,15.88
2022-07-28T03:47:07.536Z,14.63
2022-07-28T03:49:34.228Z,15.27
2022-07-28T03:52:00.905Z,14.45
2022-07-28T03:54:27.589Z,15.90
2022-07-28T03:56:54.331Z,15.07
2022-07-28T03:59:21.408Z,16.40
2022-07-28T04:01:48.203Z,16.25
2022-07-28T04:04:15.545Z,16.63
2022-07-28T04:06:43.016Z,16.77
2022-07-28T04:09:09.666Z,17.13
2022-07-28T04:11:36.367Z,16.52
2022-07-28T04:14:03.098Z,18.02
2022-07-28T04:16:29.806Z,18.35
2022-07-28T04:18:56.551Z,17.65
2022-07-28T04:21:23.261Z,17.27
2022-07-28T04:23:50.168Z,16.73
2022-07-28T04:26:17.672Z,16.10
2022-07-28T04:28:47.468Z,16.25
2022-07-28T04:31:14.253Z,16.83
2022-07-28T04:33:41.230Z,17.60
2022-07-28T04:36:08.026Z,16.90
2022-07-28T04:38:36.077Z,17.85
2022-07-28T04:41:02.799Z,17.10
2022-07-28T04:43:29.530Z,18.70
2022-07-28T04:45:56.373Z,17.77
2022-07-28T04:48:23.846Z,17.90
2022-07-28T04:50:52.532Z,17.90
2022-07-28T04:53:20.010Z,17.50
2022-07-28T04:55:46.811Z,17.23
2022-07-28T04:58:18.243Z,16.67
2022-07-28T05:00:49.905Z,17.42
2022-07-28T05:03:17.537Z,17.63
2022-07-28T05:05:44.204Z,18.08
2022-07-28T05:08:15.883Z,17.13
2022-07-28T05:10:42.852Z,17.30
2022-07-28T05:13:10.904Z,18.35
2022-07-28T05:15:37.549Z,19.40
2022-07-28T05:18:05.277Z,20.10
2022-07-28T05:20:33.333Z,25.33
2022-07-28T05:23:00.098Z,21.80
2022-07-28T05:25:26.859Z,22.42
2022-07-28T05:27:54.623Z,21.58
2022-07-28T05:30:22.262Z,21.38
2022-07-28T05:32:49.371Z,22.00
2022-07-28T05:35:16.232Z,22.05
2022-07-28T05:37:43.822Z,22.67
2022-07-28T05:40:15.193Z,22.08
2022-07-28T05:42:43.331Z,22.10
2022-07-28T05:45:15.767Z,22.17
2022-07-28T05:47:48.194Z,22.90
2022-07-28T05:50:17.770Z,22.05
2022-07-28T05:52:45.903Z,22.10
2022-07-28T05:55:13.680Z,22.27
2022-07-28T05:57:40.578Z,22.10
2022-07-28T06:00:10.472Z,22.05
2022-07-28T06:02:41.509Z,22.08
2022-07-28T06:05:09.211Z,22.75
2022-07-28T06:07:43.037Z,21.73
2022-07-28T06:10:18.568Z,22.23
2022-07-28T06:12:50.981Z,22.42
2022-07-28T06:15:23.747Z,21.80
2022-07-28T06:17:52.499Z,21.85
2022-07-28T06:20:20.813Z,22.98
2022-07-28T06:22:49.846Z,22.17
2022-07-28T06:25:19.142Z,22.85
2022-07-28T06:27:47.118Z,21.63
2022-07-28T06:30:14.535Z,23.30
2022-07-28T06:32:41.585Z,22.60
2022-07-28T06:35:09.113Z,23.10
2022-07-28T06:37:36.077Z,22.60
2022-07-28T06:40:03.212Z,23.02
2022-07-28T06:42:29.895Z,22.75
2022-07-28T06:44:59.368Z,23.05
2022-07-28T06:47:26.506Z,23.00
2022-07-28T06:49:53.385Z,23.80
2022-07-28T06:52:21.840Z,22.25
2022-07-28T06:54:52.962Z,23.52
2022-07-28T06:57:21.543Z,22.70
2022-07-28T06:59:51.648Z,22.33
2022-07-28T07:02:18.569Z,22.38
2022-07-28T07:04:45.831Z,22.42
2022-07-28T07:07:16.897Z,23.27
2022-07-28T07:09:44.531Z,22.40
2022-07-28T07:12:11.313Z,22.88
2022-07-28T07:14:38.131Z,22.80
2022-07-28T07:17:04.853Z,24.00
2022-07-28T07:19:31.590Z,22.83
2022-07-28T07:21:58.429Z,23.40
2022-07-28T07:24:25.330Z,23.23
2022-07-28T07:26:52.139Z,23.90
2022-07-28T07:29:19.795Z,23.83
2022-07-28T07:31:46.911Z,23.13
2022-07-28T07:34:19.419Z,22.92
2022-07-28T07:36:46.260Z,23.10
2022-07-28T07:39:13.359Z,23.52
2022-07-28T07:41:40.111Z,23.58
2022-07-28T07:44:06.809Z,24.00
2022-07-28T07:46:36.572Z,23.05
2022-07-28T07:49:03.323Z,24.00
2022-07-28T07:51:30.108Z,24.70
2022-07-28T07:53:56.798Z,24.48
2022-07-28T07:56:23.599Z,24.05
2022-07-28T07:58:56.472Z,23.73
2022-07-28T08:01:23.719Z,24.30
2022-07-28T08:03:50.642Z,24.17
2022-07-28T08:06:18.323Z,24.08
2022-07-28T08:08:55.017Z,24.48
2022-07-28T08:11:22.608Z,24.35
2022-07-28T08:13:49.686Z,24.20
2022-07-28T08:16:16.583Z,24.27
2022-07-28T08:18:44.697Z,23.25
2022-07-28T08:21:12.940Z,23.52
2022-07-28T08:23:39.718Z,23.77
2022-07-28T08:26:06.524Z,23.00
2022-07-28T08:28:33.765Z,24.45
2022-07-28T08:31:01.053Z,24.52
2022-07-28T08:33:27.785Z,24.48
2022-07-28T08:35:54.650Z,24.60
2022-07-28T08:38:21.616Z,23.92
2022-07-28T08:40:50.097Z,24.40
2022-07-28T08:43:28.801Z,24.05
2022-07-28T08:45:58.721Z,24.02
2022-07-28T08:48:30.228Z,24.15
2022-07-28T08:51:15.494Z,23.95
2022-07-28T08:53:43.764Z,24.52
2022-07-28T08:56:15.579Z,24.27
2022-07-28T08:58:43.029Z,26.25
2022-07-28T09:01:10.903Z,25.05
2022-07-28T09:03:39.038Z,24.70
2022-07-28T09:06:06.227Z,24.38
2022-07-28T09:08:33.412Z,24.80
2022-07-28T09:11:00.194Z,25.60
2022-07-28T09:13:27.245Z,24.70
2022-07-28T09:15:54.383Z,24.83
2022-07-28T09:18:21.582Z,25.30
2022-07-28T09:20:48.322Z,24.65
2022-07-28T09:23:43.465Z,24.98
2022-07-28T09:26:12.054Z,24.33
2022-07-28T09:28:57.192Z,25.13
2022-07-28T09:31:27.949Z,23.85
2022-07-28T09:33:57.984Z,24.58
2022-07-28T09:36:25.059Z,25.08
2022-07-28T09:38:51.879Z,24.80
2022-07-28T09:41:21.584Z,24.17
2022-07-28T09:43:54.474Z,25.20
2022-07-28T09:46:25.474Z,25.47
2022-07-28T09:49:00.817Z,25.83
2022-07-28T09:51:30.731Z,26.42
2022-07-28T09:54:10.045Z,24.88
2022-07-28T09:56:43.302Z,26.40
2022-07-28T09:59:11.582Z,26.63
2022-07-28T10:01:52.948Z,25.58
2022-07-28T10:04:40.849Z,26.38
2022-07-28T10:07:09.563Z,26.20
2022-07-28T10:09:38.125Z,25.65
2022-07-28T10:12:22.317Z,27.73
2022-07-28T10:14:51.710Z,26.90
2022-07-28T10:17:31.581Z,27.05
2022-07-28T10:20:06.990Z,26.60
2022-07-28T10:22:42.853Z,26.73
2022-07-28T10:25:12.460Z,26.55
2022-07-28T10:27:41.467Z,26.85
2022-07-28T10:30:09.174Z,27.52
2022-07-28T10:32:42.362Z,26.67
2022-07-28T10:35:11.659Z,26.70
2022-07-28T10:37:45.504Z,26.58
2022-07-28T10:40:13.775Z,27.40
2022-07-28T10:42:40.846Z,28.15
2022-07-28T10:45:10.979Z,27.88
2022-07-28T10:47:37.899Z,27.02
2022-07-28T10:50:05.139Z,27.08
2022-07-28T10:52:47.343Z,27.67
2022-07-28T10:55:20.419Z,27.52
2022-07-28T10:58:28.016Z,26.33
2022-07-28T11:00:57.268Z,25.55
2022-07-28T11:03:41.224Z,26.05
2022-07-28T11:06:36.617Z,26.75
2022-07-28T11:09:15.701Z,26.45
2022-07-28T11:11:46.600Z,27.02
2022-07-28T11:14:30.667Z,27.50
2022-07-28T11:17:03.366Z,27.50
2022-07-28T11:19:41.980Z,25.65
2022-07-28T11:22:18.978Z,27.30
2022-07-28T11:24:58.366Z,28.02
2022-07-28T11:27:40.801Z,28.52
2022-07-28T11:30:11.402Z,27.40
2022-07-28T11:32:57.657Z,28.50
2022-07-28T11:35:26.376Z,26.08
2022-07-28T11:38:02.300Z,25.27
2022-07-28T11:40:29.276Z,24.15
2022-07-28T11:43:36.479Z,25.17
2022-07-28T11:46:09.677Z,28.02
2022-07-28T11:48:39.389Z,27.92
2022-07-28T11:51:06.254Z,27.08
2022-07-28T11:53:47.673Z,27.80
2022-07-28T11:56:37.137Z,27.15
2022-07-28T11:59:05.759Z,27.35
2022-07-28T12:01:38.186Z,27.38
2022-07-28T12:04:14.504Z,28.30
2022-07-28T12:06:42.823Z,26.10
2022-07-28T12:09:10.666Z,25.80
2022-07-28T12:11:41.062Z,25.77
2022-07-28T12:14:09.397Z,26.88
2022-07-28T12:16:39.548Z,27.33
2022-07-28T12:19:08.213Z,27.55
2022-07-28T12:22:07.278Z,27.95
2022-07-28T12:24:46.029Z,28.23
2022-07-28T12:27:16.939Z,27.67
2022-07-28T12:29:44.018Z,28.02
2022-07-28T12:32:17.415Z,27.75
2022-07-28T12:34:45.444Z,27.02
2022-07-28T12:37:13.609Z,28.40
2022-07-28T12:39:43.061Z,29.00
2022-07-28T12:42:12.772Z,27.95
2022-07-28T12:44:44.437Z,29.15
2022-07-28T12:47:12.879Z,27.08
2022-07-28T12:49:42.093Z,29.20
2022-07-28T12:52:22.882Z,25.85
2022-07-28T12:54:54.641Z,27.83
2022-07-28T12:57:50.869Z,27.88
2022-07-28T13:00:21.157Z,29.85
2022-07-28T13:02:53.258Z,29.20
2022-07-28T13:08:44.323Z,27.88
2022-07-28T13:11:43.293Z,27.27
2022-07-28T13:14:03.026Z,29.45
2022-07-28T13:16:29.966Z,28.70
2022-07-28T13:18:59.283Z,29.33
2022-07-28T13:21:59.667Z,28.70
2022-07-28T13:24:30.157Z,29.08
2022-07-28T13:26:58.984Z,29.02
2022-07-28T13:29:25.825Z,28.23
2022-07-28T13:31:54.627Z,27.73
2022-07-28T13:34:23.346Z,28.35
2022-07-28T13:36:50.409Z,28.88
2022-07-28T13:39:17.156Z,27.83
2022-07-28T13:41:57.686Z,27.05
2022-07-28T13:44:30.231Z,28.95
2022-07-28T13:46:59.256Z,28.40
2022-07-28T13:49:27.525Z,29.05
2022-07-28T13:51:54.799Z,28.00
2022-07-28T13:54:21.593Z,27.13
2022-07-28T13:56:49.419Z,28.75
2022-07-28T13:59:35.526Z,28.67
2022-07-28T14:02:04.929Z,29.52
2022-07-28T14:04:31.666Z,28.65
2022-07-28T14:06:59.484Z,28.52
2022-07-28T14:09:26.444Z,27.30
2022-07-28T14:11:54.299Z,27.35
2022-07-28T14:14:24.950Z,28.92
2022-07-28T14:16:54.611Z,28.40
2022-07-28T14:19:38.660Z,27.42
2022-07-28T14:22:12.839Z,28.35
2022-07-28T14:24:42.002Z,27.17
2022-07-28T14:27:08.782Z,28.42
2022-07-28T14:29:37.928Z,28.13
2022-07-28T14:32:05.837Z,28.35
2022-07-28T14:34:35.088Z,29.58
2022-07-28T14:37:08.529Z,29.88
2022-07-28T14:39:37.358Z,27.60
2022-07-28T14:42:05.022Z,28.98
2022-07-28T14:44:32.215Z,28.13
2022-07-28T14:46:58.986Z,28.85
2022-07-28T14:49:25.793Z,27.92
2022-07-28T14:51:52.625Z,30.27
2022-07-28T14:54:23.179Z,30.15
2022-07-28T14:56:49.959Z,29.23
2022-07-28T14:59:16.868Z,30.20
2022-07-28T15:01:44.079Z,31.00
2022-07-28T15:04:12.387Z,31.63
2022-07-28T15:06:40.363Z,29.70
2022-07-28T15:09:07.161Z,30.30
2022-07-28T15:11:33.841Z,30.67
2022-07-28T15:14:00.549Z,30.48
2022-07-28T15:16:28.341Z,29.50
2022-07-28T15:18:55.388Z,27.77
2022-07-28T15:21:22.617Z,29.05
2022-07-28T15:23:49.690Z,29.25
2022-07-28T15:26:16.419Z,28.98
2022-07-28T15:28:43.329Z,29.92
2022-07-28T15:31:10.520Z,31.25
2022-07-28T15:33:41.104Z,28.92
2022-07-28T15:36:15.020Z,32.40
2022-07-28T15:38:41.757Z,30.67
2022-07-28T15:41:15.016Z,30.70
2022-07-28T15:43:42.342Z,30.48
2022-07-28T15:46:12.868Z,28.67
2022-07-28T15:48:42.009Z,28.92
2022-07-28T15:51:08.933Z,30.48
2022-07-28T15:53:36.570Z,30.88
2022-07-28T15:56:04.575Z,28.67
2022-07-28T15:58:31.353Z,29.40
2022-07-28T16:01:01.065Z,29.23
2022-07-28T16:03:29.841Z,29.33
2022-07-28T16:05:58.474Z,30.35
2022-07-28T16:08:25.381Z,30.25
2022-07-28T16:10:53.110Z,28.27
2022-07-28T16:13:32.196Z,29.80
2022-07-28T16:16:07.444Z,29.90
2022-07-28T16:18:36.356Z,28.15
2022-07-28T16:21:03.483Z,28.27
2022-07-28T16:23:30.309Z,29.10
2022-07-28T16:25:57.585Z,30.08
2022-07-28T16:28:24.820Z,28.88
2022-07-28T16:30:51.658Z,29.75
2022-07-28T16:33:18.548Z,31.17
2022-07-28T16:35:45.791Z,29.48
2022-07-28T16:38:12.706Z,28.17
2022-07-28T16:40:40.694Z,28.63
2022-07-28T16:43:07.519Z,28.90
2022-07-28T16:45:35.451Z,27.95
2022-07-28T16:48:03.037Z,29.30
2022-07-28T16:50:31.462Z,28.20
2022-07-28T16:52:59.204Z,28.17
2022-07-28T16:55:26.567Z,29.80
2022-07-28T16:57:53.772Z,30.85
2022-07-28T17:00:25.945Z,32.33
2022-07-28T17:02:53.356Z,29.73
2022-07-28T17:05:20.258Z,30.80
2022-07-28T17:07:47.896Z,30.23
2022-07-28T17:10:20.271Z,29.95
2022-07-28T17:12:50.168Z,32.22
2022-07-28T17:15:22.283Z,31.45
2022-07-28T17:17:50.810Z,31.42
2022-07-28T17:20:18.767Z,32.40
2022-07-28T17:22:45.503Z,31.23
2022-07-28T17:25:42.917Z,30.45
2022-07-28T17:27:59.363Z,30.70
2022-07-28T17:30:26.480Z,31.00
2022-07-28T17:32:58.908Z,28.95
2022-07-28T17:35:34.280Z,27.88
2022-07-28T17:38:03.543Z,27.73
2022-07-28T17:40:30.995Z,28.23
2022-07-28T17:42:57.895Z,27.75
2022-07-28T17:45:24.940Z,27.92
2022-07-28T17:47:52.115Z,26.63
2022-07-28T17:50:19.253Z,26.08
2022-07-28T17:52:46.502Z,25.13
2022-07-28T17:55:35.659Z,25.45
2022-07-28T17:58:27.909Z,25.20
2022-07-28T18:01:11.241Z,25.20
2022-07-28T18:03:59.522Z,25.15
2022-07-28T18:06:33.436Z,26.27
2022-07-28T18:09:05.514Z,25.65
2022-07-28T18:11:57.707Z,25.13
2022-07-28T18:14:29.965Z,23.92
2022-07-28T18:16:57.948Z,24.17
2022-07-28T18:19:25.968Z,24.30
2022-07-28T18:21:52.722Z,24.27
2022-07-28T18:24:21.840Z,24.38
2022-07-28T18:26:52.766Z,24.80
2022-07-28T18:29:21.419Z,24.20
2022-07-28T18:31:50.843Z,24.75
2022-07-28T18:34:18.274Z,24.52
2022-07-28T18:36:46.075Z,25.10
2022-07-28T18:39:12.766Z,25.00
2022-07-28T18:41:46.192Z,31.50
2022-07-28T18:44:16.309Z,24.80
2022-07-28T18:46:43.892Z,24.20
2022-07-28T18:49:10.755Z,24.95
2022-07-28T18:51:37.510Z,24.85
2022-07-28T18:54:04.348Z,24.02
2022-07-28T18:56:31.665Z,23.83
2022-07-28T18:58:58.371Z,20.90
2022-07-28T19:01:25.105Z,21.48
2022-07-28T19:03:51.885Z,21.55
2022-07-28T19:06:18.739Z,21.10
2022-07-28T19:08:45.410Z,21.63
2022-07-28T19:11:12.092Z,21.10
2022-07-28T19:13:39.294Z,21.55
2022-07-28T19:16:06.113Z,21.10
2022-07-28T19:18:32.923Z,22.55
2022-07-28T19:20:59.659Z,22.25
2022-07-28T19:23:26.370Z,21.60
2022-07-28T19:25:53.087Z,22.63
2022-07-28T19:28:19.794Z,24.15
2022-07-28T19:30:49.517Z,21.95
2022-07-28T19:33:19.319Z,21.73
2022-07-28T19:35:46.209Z,22.48
2022-07-28T19:38:12.968Z,21.70
2022-07-28T19:40:41.346Z,21.40
2022-07-28T19:43:10.410Z,21.13
2022-07-28T19:45:38.576Z,20.83
2022-07-28T19:48:07.147Z,21.33
2022-07-28T19:50:35.009Z,22.27
2022-07-28T19:53:02.433Z,20.98
2022-07-28T19:55:32.114Z,21.63
2022-07-28T19:58:01.587Z,21.25
2022-07-28T20:00:28.364Z,23.52
2022-07-28T20:02:55.485Z,21.08
2022-07-28T20:05:22.391Z,20.98
2022-07-28T20:07:49.435Z,21.83
2022-07-28T20:10:16.100Z,21.15
2022-07-28T20:12:42.840Z,21.80
2022-07-28T20:15:10.129Z,21.08
2022-07-28T20:17:39.719Z,20.95
2022-07-28T20:20:08.880Z,22.30
2022-07-28T20:22:36.176Z,21.77
2022-07-28T20:25:03.878Z,21.27
2022-07-28T20:27:30.558Z,21.73
2022-07-28T20:29:58.886Z,21.48
2022-07-28T20:32:25.945Z,21.30
2022-07-28T20:34:52.892Z,20.95
2022-07-28T20:37:27.838Z,22.65
2022-07-28T20:40:03.672Z,21.40
2022-07-28T20:42:30.359Z,21.45
2022-07-28T20:44:57.032Z,21.00
2022-07-28T20:47:23.728Z,21.98
2022-07-28T20:49:50.440Z,21.80
2022-07-28T20:52:17.166Z,22.67
2022-07-28T20:54:43.924Z,21.60
2022-07-28T20:57:11.110Z,21.70
2022-07-28T20:59:37.837Z,24.17
2022-07-28T21:02:04.613Z,21.40
2022-07-28T21:04:31.318Z,21.65
2022-07-28T21:07:02.240Z,21.08
2022-07-28T21:09:31.077Z,21.90
2022-07-28T21:11:57.778Z,21.92
2022-07-28T21:14:24.498Z,21.60
2022-07-28T21:16:51.326Z,21.88
2022-07-28T21:19:18.222Z,21.85
2022-07-28T21:21:44.916Z,22.17
2022-07-28T21:24:11.857Z,21.55
2022-07-28T21:26:41.559Z,22.00
2022-07-28T21:29:12.617Z,22.15
2022-07-28T21:32:03.628Z,21.67
2022-07-28T21:34:29.128Z,22.02
2022-07-28T21:36:55.848Z,21.23
2022-07-28T21:39:22.525Z,21.02
2022-07-28T21:41:49.210Z,21.20
2022-07-28T21:44:15.990Z,22.45
2022-07-28T21:46:45.522Z,21.45
2022-07-28T21:49:12.290Z,21.83
2022-07-28T21:51:39.167Z,21.73
2022-07-28T21:54:06.147Z,21.60
2022-07-28T21:56:34.439Z,21.95
2022-07-28T21:59:02.501Z,21.65
2022-07-28T22:01:29.797Z,22.02
2022-07-28T22:03:56.890Z,21.05
2022-07-28T22:06:24.391Z,21.42
2022-07-28T22:08:53.676Z,21.92
2022-07-28T22:11:21.847Z,21.05
2022-07-28T22:13:48.684Z,21.33
2022-07-28T22:16:15.727Z,21.75
2022-07-28T22:18:43.494Z,22.20
2022-07-28T22:21:10.274Z,21.23
2022-07-28T22:23:37.014Z,21.90
2022-07-28T22:26:03.796Z,21.73
2022-07-28T22:28:30.883Z,21.15
2022-07-28T22:31:09.361Z,21.95
2022-07-28T22:33:40.077Z,20.13
2022-07-28T22:36:09.061Z,20.60
2022-07-28T22:38:36.253Z,20.23
2022-07-28T22:41:03.350Z,20.63
2022-07-28T22:43:32.947Z,21.02
2022-07-28T22:45:59.980Z,20.63
2022-07-28T22:48:26.720Z,21.92
2022-07-28T22:50:53.828Z,19.88
2022-07-28T22:53:20.485Z,21.65
2022-07-28T22:55:47.182Z,21.23
2022-07-28T22:58:13.892Z,22.23
2022-07-28T23:00:40.639Z,21.63
2022-07-28T23:03:07.456Z,22.08
2022-07-28T23:05:38.427Z,22.35
2022-07-28T23:08:05.439Z,21.55
2022-07-28T23:10:32.144Z,21.88
2022-07-28T23:12:59.538Z,21.23
2022-07-28T23:15:41.357Z,21.83
2022-07-28T23:18:15.719Z,21.85
2022-07-28T23:20:43.809Z,21.75
2022-07-28T23:23:11.909Z,21.38
2022-07-28T23:25:42.444Z,21.70
2022-07-28T23:28:09.702Z,21.73
2022-07-28T23:30:36.851Z,21.30
2022-07-28T23:33:04.526Z,21.15
2022-07-28T23:35:31.536Z,21.08
2022-07-28T23:37:58.248Z,20.95
2022-07-28T23:40:25.084Z,22.20
2022-07-28T23:42:52.066Z,21.80
2022-07-28T23:45:18.795Z,21.83
2022-07-28T23:47:45.529Z,21.10
2022-07-28T23:50:12.368Z,22.40
2022-07-28T23:52:39.053Z,22.08
2022-07-28T23:55:06.355Z,21.95
2022-07-28T23:57:33.310Z,22.00
